sensor_id;sensor_type;location;lat;lon;timestamp;P1;durP1;ratioP1;P2;durP2;ratioP2
5475;SDS011;2760;50.000;9.194;2022-09-09T00:01:13;7.43;;;1.43;;
5475;SDS011;2760;50.000;9.194;2022-09-09T00:03:53;2.40;;;1.60;;
5475;SDS011;2760;50.000;9.194;2022-09-09T00:06:24;2.80;;;1.57;;
5475;SDS011;2760;50.000;9.194;2022-09-09T00:08:59;6.70;;;1.83;;
5475;SDS011;2760;50.000;9.194;2022-09-09T00:11:35;3.90;;;1.73;;
5475;SDS011;2760;50.000;9.194;2022-09-09T00:14:10;6.00;;;1.73;;
5475;SDS011;2760;50.000;9.194;2022-09-09T00:16:44;1.53;;;1.40;;
5475;SDS011;2760;50.000;9.194;2022-09-09T00:19:20;3.27;;;1.77;;
5475;SDS011;2760;50.000;9.194;2022-09-09T00:21:53;1.60;;;1.50;;
5475;SDS011;2760;50.000;9.194;2022-09-09T00:24:35;1.80;;;1.60;;
5475;SDS011;2760;50.000;9.194;2022-09-09T00:27:09;4.00;;;1.87;;
5475;SDS011;2760;50.000;9.194;2022-09-09T00:29:45;2.97;;;1.60;;
5475;SDS011;2760;50.000;9.194;2022-09-09T00:32:18;2.30;;;1.63;;
5475;SDS011;2760;50.000;9.194;2022-09-09T00:34:47;4.63;;;1.73;;
5475;SDS011;2760;50.000;9.194;2022-09-09T00:37:15;2.67;;;2.07;;
5475;SDS011;2760;50.000;9.194;2022-09-09T00:39:45;6.77;;;1.60;;
5475;SDS011;2760;50.000;9.194;2022-09-09T00:42:14;2.70;;;1.87;;
5475;SDS011;2760;50.000;9.194;2022-09-09T00:44:49;2.93;;;1.83;;
5475;SDS011;2760;50.000;9.194;2022-09-09T00:47:38;3.57;;;1.57;;
5475;SDS011;2760;50.000;9.194;2022-09-09T00:50:13;5.47;;;2.17;;
5475;SDS011;2760;50.000;9.194;2022-09-09T00:53:02;9.80;;;1.87;;
5475;SDS011;2760;50.000;9.194;2022-09-09T00:55:39;4.20;;;1.87;;
5475;SDS011;2760;50.000;9.194;2022-09-09T00:58:11;3.63;;;2.10;;
5475;SDS011;2760;50.000;9.194;2022-09-09T01:00:42;4.80;;;1.90;;
5475;SDS011;2760;50.000;9.194;2022-09-09T01:03:13;2.30;;;1.53;;
5475;SDS011;2760;50.000;9.194;2022-09-09T01:05:51;1.83;;;1.50;;
5475;SDS011;2760;50.000;9.194;2022-09-09T01:08:33;3.07;;;1.73;;
5475;SDS011;2760;50.000;9.194;2022-09-09T01:11:10;1.90;;;1.47;;
5475;SDS011;2760;50.000;9.194;2022-09-09T01:13:43;10.17;;;2.20;;
5475;SDS011;2760;50.000;9.194;2022-09-09T01:16:15;9.30;;;2.30;;
5475;SDS011;2760;50.000;9.194;2022-09-09T01:18:44;1.80;;;1.70;;
5475;SDS011;2760;50.000;9.194;2022-09-09T01:21:17;3.63;;;2.57;;
5475;SDS011;2760;50.000;9.194;2022-09-09T01:23:59;4.13;;;1.90;;
5475;SDS011;2760;50.000;9.194;2022-09-09T01:26:58;3.70;;;1.60;;
5475;SDS011;2760;50.000;9.194;2022-09-09T01:29:28;2.37;;;1.40;;
5475;SDS011;2760;50.000;9.194;2022-09-09T01:31:56;3.27;;;1.63;;
5475;SDS011;2760;50.000;9.194;2022-09-09T01:34:25;3.73;;;1.80;;
5475;SDS011;2760;50.000;9.194;2022-09-09T01:36:57;1.40;;;1.30;;
5475;SDS011;2760;50.000;9.194;2022-09-09T01:39:27;2.07;;;1.40;;
5475;SDS011;2760;50.000;9.194;2022-09-09T01:42:03;2.03;;;1.33;;
5475;SDS011;2760;50.000;9.194;2022-09-09T01:44:32;6.63;;;2.20;;
5475;SDS011;2760;50.000;9.194;2022-09-09T01:47:03;1.93;;;1.40;;
5475;SDS011;2760;50.000;9.194;2022-09-09T01:49:30;2.27;;;1.87;;
5475;SDS011;2760;50.000;9.194;2022-09-09T01:52:04;2.40;;;1.33;;
5475;SDS011;2760;50.000;9.194;2022-09-09T01:54:36;4.47;;;1.73;;
5475;SDS011;2760;50.000;9.194;2022-09-09T01:57:15;5.43;;;1.63;;
5475;SDS011;2760;50.000;9.194;2022-09-09T01:59:53;2.27;;;1.30;;
5475;SDS011;2760;50.000;9.194;2022-09-09T02:02:42;2.97;;;1.60;;
5475;SDS011;2760;50.000;9.194;2022-09-09T02:05:21;8.90;;;2.00;;
5475;SDS011;2760;50.000;9.194;2022-09-09T02:07:58;1.60;;;1.20;;
5475;SDS011;2760;50.000;9.194;2022-09-09T02:10:42;1.47;;;1.33;;
5475;SDS011;2760;50.000;9.194;2022-09-09T02:13:27;2.87;;;1.10;;
5475;SDS011;2760;50.000;9.194;2022-09-09T02:15:56;2.17;;;1.40;;
5475;SDS011;2760;50.000;9.194;2022-09-09T02:18:27;3.67;;;1.50;;
5475;SDS011;2760;50.000;9.194;2022-09-09T02:20:58;1.93;;;1.43;;
5475;SDS011;2760;50.000;9.194;2022-09-09T02:23:26;1.50;;;1.40;;
5475;SDS011;2760;50.000;9.194;2022-09-09T02:25:55;3.10;;;2.17;;
5475;SDS011;2760;50.000;9.194;2022-09-09T02:28:25;5.67;;;1.43;;
5475;SDS011;2760;50.000;9.194;2022-09-09T02:30:56;2.97;;;1.50;;
5475;SDS011;2760;50.000;9.194;2022-09-09T02:33:30;4.73;;;1.87;;
5475;SDS011;2760;50.000;9.194;2022-09-09T02:36:03;2.63;;;1.50;;
5475;SDS011;2760;50.000;9.194;2022-09-09T02:38:37;2.33;;;1.50;;
5475;SDS011;2760;50.000;9.194;2022-09-09T02:41:12;3.00;;;1.40;;
5475;SDS011;2760;50.000;9.194;2022-09-09T02:43:40;2.27;;;1.57;;
5475;SDS011;2760;50.000;9.194;2022-09-09T02:46:15;3.17;;;1.50;;
5475;SDS011;2760;50.000;9.194;2022-09-09T02:48:58;3.80;;;1.30;;
5475;SDS011;2760;50.000;9.194;2022-09-09T02:51:33;3.83;;;1.30;;
5475;SDS011;2760;50.000;9.194;2022-09-09T02:54:10;3.73;;;1.60;;
5475;SDS011;2760;50.000;9.194;2022-09-09T02:56:44;2.63;;;1.53;;
5475;SDS011;2760;50.000;9.194;2022-09-09T02:59:17;4.93;;;2.30;;
5475;SDS011;2760;50.000;9.194;2022-09-09T03:01:45;1.60;;;1.50;;
5475;SDS011;2760;50.000;9.194;2022-09-09T03:04:12;1.90;;;1.80;;
5475;SDS011;2760;50.000;9.194;2022-09-09T03:06:39;1.73;;;1.30;;
5475;SDS011;2760;50.000;9.194;2022-09-09T03:09:15;3.63;;;1.33;;
5475;SDS011;2760;50.000;9.194;2022-09-09T03:11:43;3.13;;;1.33;;
5475;SDS011;2760;50.000;9.194;2022-09-09T03:14:12;1.67;;;1.50;;
5475;SDS011;2760;50.000;9.194;2022-09-09T03:16:41;2.40;;;1.63;;
5475;SDS011;2760;50.000;9.194;2022-09-09T03:19:09;7.20;;;2.00;;
5475;SDS011;2760;50.000;9.194;2022-09-09T03:21:36;5.80;;;1.90;;
5475;SDS011;2760;50.000;9.194;2022-09-09T03:24:04;4.47;;;2.30;;
5475;SDS011;2760;50.000;9.194;2022-09-09T03:26:31;4.87;;;2.80;;
5475;SDS011;2760;50.000;9.194;2022-09-09T03:28:59;4.90;;;2.90;;
5475;SDS011;2760;50.000;9.194;2022-09-09T03:31:29;7.40;;;2.77;;
5475;SDS011;2760;50.000;9.194;2022-09-09T03:33:58;4.53;;;2.50;;
5475;SDS011;2760;50.000;9.194;2022-09-09T03:36:29;3.93;;;1.90;;
5475;SDS011;2760;50.000;9.194;2022-09-09T03:38:56;2.03;;;1.70;;
5475;SDS011;2760;50.000;9.194;2022-09-09T03:41:26;4.20;;;2.60;;
5475;SDS011;2760;50.000;9.194;2022-09-09T03:43:53;10.80;;;2.37;;
5475;SDS011;2760;50.000;9.194;2022-09-09T03:46:24;8.57;;;2.17;;
5475;SDS011;2760;50.000;9.194;2022-09-09T03:48:52;5.60;;;2.40;;
5475;SDS011;2760;50.000;9.194;2022-09-09T03:51:20;4.07;;;2.77;;
5475;SDS011;2760;50.000;9.194;2022-09-09T03:53:47;4.87;;;3.10;;
5475;SDS011;2760;50.000;9.194;2022-09-09T03:56:14;5.23;;;3.20;;
5475;SDS011;2760;50.000;9.194;2022-09-09T03:58:42;3.23;;;2.10;;
5475;SDS011;2760;50.000;9.194;2022-09-09T04:01:11;3.83;;;2.00;;
5475;SDS011;2760;50.000;9.194;2022-09-09T04:03:40;3.40;;;2.73;;
5475;SDS011;2760;50.000;9.194;2022-09-09T04:06:09;5.83;;;3.30;;
5475;SDS011;2760;50.000;9.194;2022-09-09T04:08:39;5.67;;;3.13;;
5475;SDS011;2760;50.000;9.194;2022-09-09T04:11:07;7.23;;;3.10;;
5475;SDS011;2760;50.000;9.194;2022-09-09T04:13:35;5.50;;;3.00;;
5475;SDS011;2760;50.000;9.194;2022-09-09T04:16:06;7.60;;;3.47;;
5475;SDS011;2760;50.000;9.194;2022-09-09T04:18:35;4.47;;;2.77;;
5475;SDS011;2760;50.000;9.194;2022-09-09T04:21:03;5.60;;;1.93;;
5475;SDS011;2760;50.000;9.194;2022-09-09T04:23:32;5.73;;;3.70;;
5475;SDS011;2760;50.000;9.194;2022-09-09T04:26:02;5.90;;;3.00;;
5475;SDS011;2760;50.000;9.194;2022-09-09T04:28:32;6.13;;;1.80;;
5475;SDS011;2760;50.000;9.194;2022-09-09T04:31:05;2.07;;;1.83;;
5475;SDS011;2760;50.000;9.194;2022-09-09T04:33:35;1.67;;;1.57;;
5475;SDS011;2760;50.000;9.194;2022-09-09T04:36:02;3.03;;;2.00;;
5475;SDS011;2760;50.000;9.194;2022-09-09T04:38:29;2.63;;;1.43;;
5475;SDS011;2760;50.000;9.194;2022-09-09T04:40:56;4.43;;;2.00;;
5475;SDS011;2760;50.000;9.194;2022-09-09T04:43:25;1.77;;;1.60;;
5475;SDS011;2760;50.000;9.194;2022-09-09T04:45:53;2.43;;;1.90;;
5475;SDS011;2760;50.000;9.194;2022-09-09T04:48:23;8.23;;;1.90;;
5475;SDS011;2760;50.000;9.194;2022-09-09T04:50:54;6.40;;;2.40;;
5475;SDS011;2760;50.000;9.194;2022-09-09T04:53:23;3.33;;;2.23;;
5475;SDS011;2760;50.000;9.194;2022-09-09T04:55:51;5.67;;;2.97;;
5475;SDS011;2760;50.000;9.194;2022-09-09T04:58:18;3.17;;;2.20;;
5475;SDS011;2760;50.000;9.194;2022-09-09T05:00:49;4.30;;;2.10;;
5475;SDS011;2760;50.000;9.194;2022-09-09T05:03:17;9.03;;;2.07;;
5475;SDS011;2760;50.000;9.194;2022-09-09T05:05:45;4.17;;;2.30;;
5475;SDS011;2760;50.000;9.194;2022-09-09T05:08:12;2.47;;;1.90;;
5475;SDS011;2760;50.000;9.194;2022-09-09T05:10:40;4.53;;;2.30;;
5475;SDS011;2760;50.000;9.194;2022-09-09T05:13:08;10.63;;;2.77;;
5475;SDS011;2760;50.000;9.194;2022-09-09T05:15:36;7.10;;;2.80;;
5475;SDS011;2760;50.000;9.194;2022-09-09T05:18:04;2.93;;;2.13;;
5475;SDS011;2760;50.000;9.194;2022-09-09T05:20:31;2.20;;;2.10;;
5475;SDS011;2760;50.000;9.194;2022-09-09T05:23:00;3.10;;;1.67;;
5475;SDS011;2760;50.000;9.194;2022-09-09T05:25:31;5.00;;;1.90;;
5475;SDS011;2760;50.000;9.194;2022-09-09T05:27:58;5.83;;;3.00;;
5475;SDS011;2760;50.000;9.194;2022-09-09T05:30:26;2.43;;;2.23;;
5475;SDS011;2760;50.000;9.194;2022-09-09T05:32:55;3.50;;;2.57;;
5475;SDS011;2760;50.000;9.194;2022-09-09T05:35:23;4.80;;;1.97;;
5475;SDS011;2760;50.000;9.194;2022-09-09T05:37:51;2.83;;;2.40;;
5475;SDS011;2760;50.000;9.194;2022-09-09T05:40:18;2.73;;;2.40;;
5475;SDS011;2760;50.000;9.194;2022-09-09T05:42:47;8.90;;;2.03;;
5475;SDS011;2760;50.000;9.194;2022-09-09T05:45:14;3.30;;;1.80;;
5475;SDS011;2760;50.000;9.194;2022-09-09T05:47:41;5.97;;;1.80;;
5475;SDS011;2760;50.000;9.194;2022-09-09T05:50:12;2.70;;;1.70;;
5475;SDS011;2760;50.000;9.194;2022-09-09T05:52:41;4.20;;;1.80;;
5475;SDS011;2760;50.000;9.194;2022-09-09T05:55:10;7.53;;;2.50;;
5475;SDS011;2760;50.000;9.194;2022-09-09T05:57:37;3.77;;;3.23;;
5475;SDS011;2760;50.000;9.194;2022-09-09T06:00:05;4.20;;;3.03;;
5475;SDS011;2760;50.000;9.194;2022-09-09T06:02:39;4.70;;;2.63;;
5475;SDS011;2760;50.000;9.194;2022-09-09T06:05:07;4.07;;;2.40;;
5475;SDS011;2760;50.000;9.194;2022-09-09T06:07:36;5.80;;;2.90;;
5475;SDS011;2760;50.000;9.194;2022-09-09T06:10:09;3.50;;;2.30;;
5475;SDS011;2760;50.000;9.194;2022-09-09T06:12:39;12.90;;;4.50;;
5475;SDS011;2760;50.000;9.194;2022-09-09T06:15:06;3.30;;;2.57;;
5475;SDS011;2760;50.000;9.194;2022-09-09T06:17:34;3.70;;;2.53;;
5475;SDS011;2760;50.000;9.194;2022-09-09T06:20:02;8.20;;;3.07;;
5475;SDS011;2760;50.000;9.194;2022-09-09T06:22:30;4.20;;;2.47;;
5475;SDS011;2760;50.000;9.194;2022-09-09T06:24:57;7.33;;;2.60;;
5475;SDS011;2760;50.000;9.194;2022-09-09T06:27:28;11.90;;;2.93;;
5475;SDS011;2760;50.000;9.194;2022-09-09T06:29:55;7.47;;;2.60;;
5475;SDS011;2760;50.000;9.194;2022-09-09T06:32:22;6.77;;;2.07;;
5475;SDS011;2760;50.000;9.194;2022-09-09T06:34:49;2.03;;;1.33;;
5475;SDS011;2760;50.000;9.194;2022-09-09T06:37:16;11.70;;;2.17;;
5475;SDS011;2760;50.000;9.194;2022-09-09T06:39:47;4.90;;;1.60;;
5475;SDS011;2760;50.000;9.194;2022-09-09T06:42:14;3.27;;;1.33;;
5475;SDS011;2760;50.000;9.194;2022-09-09T06:45:09;4.70;;;1.63;;
5475;SDS011;2760;50.000;9.194;2022-09-09T06:47:45;3.10;;;1.30;;
5475;SDS011;2760;50.000;9.194;2022-09-09T06:50:13;1.17;;;1.00;;
5475;SDS011;2760;50.000;9.194;2022-09-09T06:52:41;4.13;;;1.67;;
5475;SDS011;2760;50.000;9.194;2022-09-09T06:55:13;5.07;;;1.40;;
5475;SDS011;2760;50.000;9.194;2022-09-09T06:57:41;3.90;;;1.33;;
5475;SDS011;2760;50.000;9.194;2022-09-09T07:00:14;1.43;;;1.23;;
5475;SDS011;2760;50.000;9.194;2022-09-09T07:02:42;4.13;;;1.60;;
5475;SDS011;2760;50.000;9.194;2022-09-09T07:05:11;6.20;;;1.43;;
5475;SDS011;2760;50.000;9.194;2022-09-09T07:07:40;5.33;;;1.50;;
5475;SDS011;2760;50.000;9.194;2022-09-09T07:10:09;2.50;;;1.20;;
5475;SDS011;2760;50.000;9.194;2022-09-09T07:12:37;2.37;;;1.47;;
5475;SDS011;2760;50.000;9.194;2022-09-09T07:15:08;4.37;;;1.60;;
5475;SDS011;2760;50.000;9.194;2022-09-09T07:17:39;1.37;;;1.10;;
5475;SDS011;2760;50.000;9.194;2022-09-09T07:20:06;1.87;;;1.30;;
5475;SDS011;2760;50.000;9.194;2022-09-09T07:22:34;1.80;;;1.20;;
5475;SDS011;2760;50.000;9.194;2022-09-09T07:25:01;5.47;;;1.20;;
5475;SDS011;2760;50.000;9.194;2022-09-09T07:27:28;2.10;;;1.17;;
5475;SDS011;2760;50.000;9.194;2022-09-09T07:29:55;5.63;;;1.53;;
5475;SDS011;2760;50.000;9.194;2022-09-09T07:32:23;5.20;;;1.40;;
5475;SDS011;2760;50.000;9.194;2022-09-09T07:34:52;6.40;;;1.50;;
5475;SDS011;2760;50.000;9.194;2022-09-09T07:37:19;1.67;;;0.90;;
5475;SDS011;2760;50.000;9.194;2022-09-09T07:39:47;4.23;;;1.40;;
5475;SDS011;2760;50.000;9.194;2022-09-09T07:42:16;4.63;;;1.40;;
5475;SDS011;2760;50.000;9.194;2022-09-09T07:44:44;4.37;;;1.33;;
5475;SDS011;2760;50.000;9.194;2022-09-09T07:47:14;1.43;;;1.10;;
5475;SDS011;2760;50.000;9.194;2022-09-09T07:49:44;3.43;;;1.20;;
5475;SDS011;2760;50.000;9.194;2022-09-09T07:52:15;5.67;;;1.20;;
5475;SDS011;2760;50.000;9.194;2022-09-09T07:54:45;3.13;;;1.30;;
5475;SDS011;2760;50.000;9.194;2022-09-09T07:57:12;3.23;;;1.53;;
5475;SDS011;2760;50.000;9.194;2022-09-09T07:59:41;4.03;;;1.70;;
5475;SDS011;2760;50.000;9.194;2022-09-09T08:02:08;3.40;;;1.37;;
5475;SDS011;2760;50.000;9.194;2022-09-09T08:04:35;4.30;;;1.47;;
5475;SDS011;2760;50.000;9.194;2022-09-09T08:07:02;3.00;;;1.40;;
5475;SDS011;2760;50.000;9.194;2022-09-09T08:09:39;4.37;;;1.60;;
5475;SDS011;2760;50.000;9.194;2022-09-09T08:12:13;2.43;;;1.40;;
5475;SDS011;2760;50.000;9.194;2022-09-09T08:14:40;3.60;;;1.47;;
5475;SDS011;2760;50.000;9.194;2022-09-09T08:17:07;4.60;;;1.90;;
5475;SDS011;2760;50.000;9.194;2022-09-09T08:19:34;3.97;;;1.70;;
5475;SDS011;2760;50.000;9.194;2022-09-09T08:22:03;4.10;;;1.93;;
5475;SDS011;2760;50.000;9.194;2022-09-09T08:24:32;4.10;;;1.47;;
5475;SDS011;2760;50.000;9.194;2022-09-09T08:27:00;6.00;;;1.83;;
5475;SDS011;2760;50.000;9.194;2022-09-09T08:29:28;2.80;;;1.60;;
5475;SDS011;2760;50.000;9.194;2022-09-09T08:31:56;5.03;;;2.10;;
5475;SDS011;2760;50.000;9.194;2022-09-09T08:34:25;5.57;;;2.30;;
5475;SDS011;2760;50.000;9.194;2022-09-09T08:36:54;7.50;;;2.23;;
5475;SDS011;2760;50.000;9.194;2022-09-09T08:39:28;3.13;;;1.50;;
5475;SDS011;2760;50.000;9.194;2022-09-09T08:44:59;6.10;;;1.63;;
5475;SDS011;2760;50.000;9.194;2022-09-09T08:47:40;7.70;;;1.87;;
5475;SDS011;2760;50.000;9.194;2022-09-09T08:50:17;6.23;;;1.63;;
5475;SDS011;2760;50.000;9.194;2022-09-09T08:52:54;4.23;;;1.53;;
5475;SDS011;2760;50.000;9.194;2022-09-09T08:55:26;3.50;;;2.03;;
5475;SDS011;2760;50.000;9.194;2022-09-09T08:58:00;3.87;;;1.70;;
5475;SDS011;2760;50.000;9.194;2022-09-09T09:00:34;2.33;;;1.63;;
5475;SDS011;2760;50.000;9.194;2022-09-09T09:03:13;4.27;;;1.43;;
5475;SDS011;2760;50.000;9.194;2022-09-09T09:05:51;5.50;;;1.27;;
5475;SDS011;2760;50.000;9.194;2022-09-09T09:08:29;6.57;;;1.63;;
5475;SDS011;2760;50.000;9.194;2022-09-09T09:11:03;3.40;;;1.80;;
5475;SDS011;2760;50.000;9.194;2022-09-09T09:13:34;4.30;;;1.90;;
5475;SDS011;2760;50.000;9.194;2022-09-09T09:16:12;7.70;;;1.73;;
5475;SDS011;2760;50.000;9.194;2022-09-09T09:18:45;4.13;;;1.50;;
5475;SDS011;2760;50.000;9.194;2022-09-09T09:21:14;7.40;;;1.57;;
5475;SDS011;2760;50.000;9.194;2022-09-09T09:23:49;3.43;;;1.10;;
5475;SDS011;2760;50.000;9.194;2022-09-09T09:26:22;4.00;;;1.33;;
5475;SDS011;2760;50.000;9.194;2022-09-09T09:28:54;5.13;;;1.50;;
5475;SDS011;2760;50.000;9.194;2022-09-09T09:31:22;8.67;;;1.60;;
5475;SDS011;2760;50.000;9.194;2022-09-09T09:33:52;5.20;;;1.30;;
5475;SDS011;2760;50.000;9.194;2022-09-09T09:36:24;15.67;;;1.80;;
5475;SDS011;2760;50.000;9.194;2022-09-09T09:39:02;2.40;;;1.20;;
5475;SDS011;2760;50.000;9.194;2022-09-09T09:41:32;10.43;;;2.23;;
5475;SDS011;2760;50.000;9.194;2022-09-09T09:44:04;6.33;;;1.70;;
5475;SDS011;2760;50.000;9.194;2022-09-09T09:46:32;4.87;;;1.50;;
5475;SDS011;2760;50.000;9.194;2022-09-09T09:49:08;3.97;;;1.60;;
5475;SDS011;2760;50.000;9.194;2022-09-09T09:51:38;8.10;;;2.20;;
5475;SDS011;2760;50.000;9.194;2022-09-09T09:54:08;7.20;;;1.70;;
5475;SDS011;2760;50.000;9.194;2022-09-09T09:56:45;2.57;;;1.20;;
5475;SDS011;2760;50.000;9.194;2022-09-09T09:59:32;11.63;;;1.83;;
5475;SDS011;2760;50.000;9.194;2022-09-09T10:02:15;5.20;;;1.90;;
5475;SDS011;2760;50.000;9.194;2022-09-09T10:04:46;2.83;;;1.10;;
5475;SDS011;2760;50.000;9.194;2022-09-09T10:07:17;5.50;;;1.43;;
5475;SDS011;2760;50.000;9.194;2022-09-09T10:09:46;6.20;;;1.80;;
5475;SDS011;2760;50.000;9.194;2022-09-09T10:12:20;3.47;;;1.33;;
5475;SDS011;2760;50.000;9.194;2022-09-09T10:14:59;7.13;;;1.40;;
5475;SDS011;2760;50.000;9.194;2022-09-09T10:17:34;2.60;;;1.23;;
5475;SDS011;2760;50.000;9.194;2022-09-09T10:20:16;4.20;;;1.27;;
5475;SDS011;2760;50.000;9.194;2022-09-09T10:22:56;2.33;;;1.30;;
5475;SDS011;2760;50.000;9.194;2022-09-09T10:25:43;5.30;;;1.60;;
5475;SDS011;2760;50.000;9.194;2022-09-09T10:28:29;11.93;;;1.47;;
5475;SDS011;2760;50.000;9.194;2022-09-09T10:31:17;3.10;;;1.40;;
5475;SDS011;2760;50.000;9.194;2022-09-09T10:33:50;3.77;;;1.33;;
5475;SDS011;2760;50.000;9.194;2022-09-09T10:36:22;4.23;;;1.60;;
5475;SDS011;2760;50.000;9.194;2022-09-09T10:38:52;4.03;;;1.50;;
5475;SDS011;2760;50.000;9.194;2022-09-09T10:41:26;8.10;;;1.57;;
5475;SDS011;2760;50.000;9.194;2022-09-09T10:44:22;5.30;;;1.30;;
5475;SDS011;2760;50.000;9.194;2022-09-09T10:47:12;2.53;;;1.43;;
5475;SDS011;2760;50.000;9.194;2022-09-09T10:49:56;3.97;;;1.20;;
5475;SDS011;2760;50.000;9.194;2022-09-09T10:52:32;5.60;;;1.43;;
5475;SDS011;2760;50.000;9.194;2022-09-09T10:55:08;5.70;;;1.20;;
5475;SDS011;2760;50.000;9.194;2022-09-09T10:57:40;5.90;;;1.10;;
5475;SDS011;2760;50.000;9.194;2022-09-09T11:00:14;2.80;;;1.10;;
5475;SDS011;2760;50.000;9.194;2022-09-09T11:02:44;8.60;;;1.20;;
5475;SDS011;2760;50.000;9.194;2022-09-09T11:05:16;3.80;;;1.00;;
5475;SDS011;2760;50.000;9.194;2022-09-09T11:07:47;2.03;;;0.83;;
5475;SDS011;2760;50.000;9.194;2022-09-09T11:10:26;2.13;;;0.90;;
5475;SDS011;2760;50.000;9.194;2022-09-09T11:13:01;4.83;;;1.23;;
5475;SDS011;2760;50.000;9.194;2022-09-09T11:15:31;3.37;;;1.10;;
5475;SDS011;2760;50.000;9.194;2022-09-09T11:18:10;5.77;;;1.23;;
5475;SDS011;2760;50.000;9.194;2022-09-09T11:20:40;5.80;;;1.17;;
5475;SDS011;2760;50.000;9.194;2022-09-09T11:23:09;2.00;;;1.10;;
5475;SDS011;2760;50.000;9.194;2022-09-09T11:25:40;3.67;;;1.40;;
5475;SDS011;2760;50.000;9.194;2022-09-09T11:28:14;1.83;;;1.03;;
5475;SDS011;2760;50.000;9.194;2022-09-09T11:31:03;4.17;;;1.20;;
5475;SDS011;2760;50.000;9.194;2022-09-09T11:33:58;2.30;;;1.13;;
5475;SDS011;2760;50.000;9.194;2022-09-09T11:36:43;3.33;;;1.40;;
5475;SDS011;2760;50.000;9.194;2022-09-09T11:42:20;2.30;;;1.17;;
5475;SDS011;2760;50.000;9.194;2022-09-09T11:44:48;5.10;;;1.30;;
5475;SDS011;2760;50.000;9.194;2022-09-09T11:47:18;3.53;;;1.30;;
5475;SDS011;2760;50.000;9.194;2022-09-09T11:49:51;2.10;;;1.20;;
5475;SDS011;2760;50.000;9.194;2022-09-09T11:52:22;4.23;;;1.07;;
5475;SDS011;2760;50.000;9.194;2022-09-09T11:54:52;1.57;;;0.87;;
5475;SDS011;2760;50.000;9.194;2022-09-09T11:57:25;2.37;;;1.20;;
5475;SDS011;2760;50.000;9.194;2022-09-09T11:59:56;2.80;;;1.00;;
5475;SDS011;2760;50.000;9.194;2022-09-09T12:02:24;1.40;;;1.07;;
5475;SDS011;2760;50.000;9.194;2022-09-09T12:04:57;4.87;;;1.17;;
5475;SDS011;2760;50.000;9.194;2022-09-09T12:07:34;5.50;;;0.97;;
5475;SDS011;2760;50.000;9.194;2022-09-09T12:10:05;2.30;;;1.00;;
5475;SDS011;2760;50.000;9.194;2022-09-09T12:12:48;1.53;;;1.00;;
5475;SDS011;2760;50.000;9.194;2022-09-09T12:15:20;2.50;;;0.90;;
5475;SDS011;2760;50.000;9.194;2022-09-09T12:17:55;3.17;;;0.90;;
5475;SDS011;2760;50.000;9.194;2022-09-09T12:20:26;1.00;;;0.70;;
5475;SDS011;2760;50.000;9.194;2022-09-09T12:25:58;1.87;;;0.90;;
5475;SDS011;2760;50.000;9.194;2022-09-09T12:28:53;2.27;;;1.67;;
5475;SDS011;2760;50.000;9.194;2022-09-09T12:31:27;2.43;;;1.17;;
5475;SDS011;2760;50.000;9.194;2022-09-09T12:34:04;6.70;;;0.80;;
5475;SDS011;2760;50.000;9.194;2022-09-09T12:36:38;3.40;;;1.10;;
5475;SDS011;2760;50.000;9.194;2022-09-09T12:39:10;3.23;;;1.10;;
5475;SDS011;2760;50.000;9.194;2022-09-09T12:41:50;4.33;;;1.00;;
5475;SDS011;2760;50.000;9.194;2022-09-09T12:44:22;1.13;;;0.67;;
5475;SDS011;2760;50.000;9.194;2022-09-09T12:46:50;2.33;;;1.20;;
5475;SDS011;2760;50.000;9.194;2022-09-09T12:52:08;1.40;;;0.90;;
5475;SDS011;2760;50.000;9.194;2022-09-09T12:54:43;2.50;;;1.07;;
5475;SDS011;2760;50.000;9.194;2022-09-09T12:57:12;4.03;;;1.10;;
5475;SDS011;2760;50.000;9.194;2022-09-09T12:59:41;2.13;;;1.00;;
5475;SDS011;2760;50.000;9.194;2022-09-09T13:02:11;3.83;;;1.30;;
5475;SDS011;2760;50.000;9.194;2022-09-09T13:04:45;3.00;;;1.30;;
5475;SDS011;2760;50.000;9.194;2022-09-09T13:07:14;5.40;;;1.10;;
5475;SDS011;2760;50.000;9.194;2022-09-09T13:09:41;3.77;;;1.20;;
5475;SDS011;2760;50.000;9.194;2022-09-09T13:12:10;2.43;;;1.10;;
5475;SDS011;2760;50.000;9.194;2022-09-09T13:14:42;2.60;;;1.03;;
5475;SDS011;2760;50.000;9.194;2022-09-09T13:17:15;7.80;;;1.00;;
5475;SDS011;2760;50.000;9.194;2022-09-09T13:19:45;2.87;;;1.30;;
5475;SDS011;2760;50.000;9.194;2022-09-09T13:22:20;2.50;;;1.07;;
5475;SDS011;2760;50.000;9.194;2022-09-09T13:24:48;2.20;;;0.93;;
5475;SDS011;2760;50.000;9.194;2022-09-09T13:27:29;3.17;;;1.50;;
5475;SDS011;2760;50.000;9.194;2022-09-09T13:29:59;4.63;;;1.20;;
5475;SDS011;2760;50.000;9.194;2022-09-09T13:32:27;5.40;;;1.17;;
5475;SDS011;2760;50.000;9.194;2022-09-09T13:34:56;1.20;;;0.87;;
5475;SDS011;2760;50.000;9.194;2022-09-09T13:37:28;2.30;;;1.10;;
5475;SDS011;2760;50.000;9.194;2022-09-09T13:40:00;5.33;;;1.23;;
5475;SDS011;2760;50.000;9.194;2022-09-09T13:42:28;2.30;;;0.80;;
5475;SDS011;2760;50.000;9.194;2022-09-09T13:44:56;3.57;;;1.10;;
5475;SDS011;2760;50.000;9.194;2022-09-09T13:47:27;4.00;;;1.10;;
5475;SDS011;2760;50.000;9.194;2022-09-09T13:49:57;1.03;;;0.90;;
5475;SDS011;2760;50.000;9.194;2022-09-09T13:52:24;2.27;;;1.20;;
5475;SDS011;2760;50.000;9.194;2022-09-09T13:54:55;2.80;;;1.00;;
5475;SDS011;2760;50.000;9.194;2022-09-09T13:57:23;2.10;;;0.83;;
5475;SDS011;2760;50.000;9.194;2022-09-09T13:59:51;1.50;;;0.70;;
5475;SDS011;2760;50.000;9.194;2022-09-09T14:02:20;2.50;;;0.70;;
5475;SDS011;2760;50.000;9.194;2022-09-09T14:04:48;2.73;;;1.17;;
5475;SDS011;2760;50.000;9.194;2022-09-09T14:07:16;2.70;;;1.40;;
5475;SDS011;2760;50.000;9.194;2022-09-09T14:09:45;3.90;;;1.10;;
5475;SDS011;2760;50.000;9.194;2022-09-09T14:12:15;3.70;;;1.13;;
5475;SDS011;2760;50.000;9.194;2022-09-09T14:14:43;3.30;;;1.07;;
5475;SDS011;2760;50.000;9.194;2022-09-09T14:17:10;2.30;;;1.10;;
5475;SDS011;2760;50.000;9.194;2022-09-09T14:19:37;2.43;;;1.07;;
5475;SDS011;2760;50.000;9.194;2022-09-09T14:22:03;4.83;;;1.50;;
5475;SDS011;2760;50.000;9.194;2022-09-09T14:24:30;2.50;;;1.30;;
5475;SDS011;2760;50.000;9.194;2022-09-09T14:26:59;2.13;;;1.00;;
5475;SDS011;2760;50.000;9.194;2022-09-09T14:29:26;3.37;;;0.80;;
5475;SDS011;2760;50.000;9.194;2022-09-09T14:31:53;2.37;;;0.90;;
5475;SDS011;2760;50.000;9.194;2022-09-09T14:34:20;3.17;;;0.90;;
5475;SDS011;2760;50.000;9.194;2022-09-09T14:36:47;2.37;;;1.10;;
5475;SDS011;2760;50.000;9.194;2022-09-09T14:39:17;2.50;;;0.80;;
5475;SDS011;2760;50.000;9.194;2022-09-09T14:41:44;2.90;;;0.90;;
5475;SDS011;2760;50.000;9.194;2022-09-09T14:44:12;1.73;;;0.77;;
5475;SDS011;2760;50.000;9.194;2022-09-09T14:46:41;5.50;;;1.00;;
5475;SDS011;2760;50.000;9.194;2022-09-09T14:49:08;4.93;;;1.10;;
5475;SDS011;2760;50.000;9.194;2022-09-09T14:51:35;3.67;;;1.10;;
5475;SDS011;2760;50.000;9.194;2022-09-09T14:54:02;2.83;;;0.87;;
5475;SDS011;2760;50.000;9.194;2022-09-09T14:56:30;3.43;;;1.00;;
5475;SDS011;2760;50.000;9.194;2022-09-09T14:58:59;9.40;;;1.40;;
5475;SDS011;2760;50.000;9.194;2022-09-09T15:01:28;1.60;;;0.70;;
5475;SDS011;2760;50.000;9.194;2022-09-09T15:03:57;1.60;;;0.87;;
5475;SDS011;2760;50.000;9.194;2022-09-09T15:06:26;1.40;;;0.90;;
5475;SDS011;2760;50.000;9.194;2022-09-09T15:08:54;3.70;;;1.10;;
5475;SDS011;2760;50.000;9.194;2022-09-09T15:11:23;3.53;;;1.30;;
5475;SDS011;2760;50.000;9.194;2022-09-09T15:13:53;8.00;;;0.90;;
5475;SDS011;2760;50.000;9.194;2022-09-09T15:16:20;2.50;;;1.57;;
5475;SDS011;2760;50.000;9.194;2022-09-09T15:18:51;7.27;;;1.00;;
5475;SDS011;2760;50.000;9.194;2022-09-09T15:21:21;4.10;;;1.30;;
5475;SDS011;2760;50.000;9.194;2022-09-09T15:23:49;1.10;;;1.00;;
5475;SDS011;2760;50.000;9.194;2022-09-09T15:26:16;3.67;;;0.83;;
5475;SDS011;2760;50.000;9.194;2022-09-09T15:28:44;4.50;;;0.90;;
5475;SDS011;2760;50.000;9.194;2022-09-09T15:31:13;2.50;;;0.80;;
5475;SDS011;2760;50.000;9.194;2022-09-09T15:33:46;2.10;;;0.93;;
5475;SDS011;2760;50.000;9.194;2022-09-09T15:36:15;2.10;;;1.20;;
5475;SDS011;2760;50.000;9.194;2022-09-09T15:38:44;1.17;;;0.90;;
5475;SDS011;2760;50.000;9.194;2022-09-09T15:41:11;2.30;;;1.17;;
5475;SDS011;2760;50.000;9.194;2022-09-09T15:43:38;1.33;;;0.70;;
5475;SDS011;2760;50.000;9.194;2022-09-09T15:48:58;3.80;;;1.50;;
5475;SDS011;2760;50.000;9.194;2022-09-09T15:51:31;3.23;;;1.23;;
5475;SDS011;2760;50.000;9.194;2022-09-09T15:53:58;3.87;;;1.33;;
5475;SDS011;2760;50.000;9.194;2022-09-09T15:56:26;0.80;;;0.70;;